Time;durP1;ratioP1;P1;durP2;ratioP2;P2;SDS_P1;SDS_P2;PMS_P1;PMS_P2;Temp;Humidity;BMP_temperature;BMP_pressure;BME280_temperature;BME280_humidity;BME280_pressure;Samples;Min_cycle;Max_cycle;Signal;HPM_P1;HPM_P2
2022/03/11 00:01:50;;;;;;;;;32.25;28.75;;;;;12.44;49.89;100704.16;5016161;28;44761;-61
2022/03/11 00:04:16;;;;;;;;;27.00;25.00;;;;;12.29;50.16;100673.97;5011530;28;45446;-63
2022/03/11 00:06:41;;;;;;;;;28.50;24.50;;;;;12.40;50.27;100698.19;5011946;28;46749;-63
2022/03/11 00:09:10;;;;;;;;;26.75;22.75;;;;;12.26;49.81;100676.84;4996081;28;44848;-63
2022/03/11 00:11:36;;;;;;;;;26.75;24.50;;;;;12.27;50.18;100670.56;4997561;28;44737;-63
2022/03/11 00:14:02;;;;;;;;;28.00;22.75;;;;;12.31;50.29;100677.41;5032285;28;45005;-63
2022/03/11 00:16:27;;;;;;;;;33.50;25.00;;;;;12.27;50.40;100675.88;5015682;28;46210;-62
2022/03/11 00:18:53;;;;;;;;;25.00;22.75;;;;;12.23;50.40;100669.00;5010391;28;44750;-62
2022/03/11 00:21:18;;;;;;;;;37.75;26.25;;;;;12.23;50.67;100670.81;5007731;28;45368;-65
2022/03/11 00:23:44;;;;;;;;;24.50;23.25;;;;;12.22;50.71;100661.97;5012830;28;45816;-63
2022/03/11 00:26:10;;;;;;;;;27.75;21.25;;;;;12.29;50.55;100679.31;5028091;28;45449;-63
2022/03/11 00:28:36;;;;;;;;;31.25;24.50;;;;;12.21;50.28;100651.41;5013038;28;45434;-63
2022/03/11 00:31:04;;;;;;;;;30.00;25.25;;;;;12.17;50.66;100653.41;5016994;28;45353;-64
2022/03/11 00:33:30;;;;;;;;;26.75;25.25;;;;;12.31;50.58;100668.56;5014890;28;44890;-63
2022/03/11 00:35:56;;;;;;;;;25.75;22.50;;;;;12.26;50.46;100663.50;5015716;28;46312;-64
2022/03/11 00:38:21;;;;;;;;;27.75;23.00;;;;;12.29;50.72;100654.47;5015307;28;44801;-63
2022/03/11 00:40:46;;;;;;;;;25.50;20.75;;;;;12.25;50.92;100658.28;5022142;28;45508;-63
2022/03/11 00:43:12;;;;;;;;;27.75;24.75;;;;;12.22;50.47;100651.31;5016107;28;45420;-63
2022/03/11 00:45:37;;;;;;;;;22.75;20.00;;;;;12.24;50.53;100668.09;5017660;28;45284;-63
2022/03/11 00:48:03;;;;;;;;;27.25;23.75;;;;;12.09;51.03;100632.53;5017624;28;44719;-62
2022/03/11 00:50:28;;;;;;;;;24.75;21.75;;;;;12.17;50.90;100647.22;5033081;28;45250;-62
2022/03/11 00:52:54;;;;;;;;;22.00;20.50;;;;;12.09;51.28;100645.00;5013986;28;45503;-64
2022/03/11 00:55:19;;;;;;;;;29.50;24.50;;;;;12.07;51.11;100644.25;5021452;28;45438;-64
2022/03/11 00:57:45;;;;;;;;;25.00;20.50;;;;;12.07;51.10;100641.59;5020667;28;44810;-66
2022/03/11 01:00:10;;;;;;;;;29.25;23.25;;;;;11.99;51.54;100639.41;5011148;28;45402;-63
2022/03/11 01:02:37;;;;;;;;;27.50;19.75;;;;;12.01;51.31;100637.50;4993415;28;45732;-64
2022/03/11 01:05:07;;;;;;;;;25.75;21.75;;;;;11.92;51.61;100621.22;5013047;28;45498;-64
2022/03/11 01:07:33;;;;;;;;;24.00;21.25;;;;;11.90;51.46;100612.44;5011701;28;45466;-63
2022/03/11 01:09:59;;;;;;;;;24.75;21.00;;;;;11.89;51.70;100605.41;5005288;28;45269;-62
2022/03/11 01:12:25;;;;;;;;;21.00;19.75;;;;;11.94;51.54;100624.63;4991786;28;45259;-64
2022/03/11 01:14:51;;;;;;;;;22.00;19.00;;;;;11.95;52.22;100627.19;5006899;28;46601;-63
2022/03/11 01:17:16;;;;;;;;;29.00;21.25;;;;;11.87;51.47;100613.50;5010399;28;45741;-63
2022/03/11 01:19:42;;;;;;;;;20.75;19.00;;;;;11.95;51.38;100621.88;5010529;28;45780;-63
2022/03/11 01:22:08;;;;;;;;;24.00;22.50;;;;;11.90;51.75;100612.44;5008882;28;45360;-64
2022/03/11 01:24:33;;;;;;;;;27.25;23.50;;;;;11.97;51.54;100597.78;5008102;28;46179;-64
2022/03/11 01:26:59;;;;;;;;;24.75;22.25;;;;;11.98;51.55;100607.50;5002073;28;45495;-64
2022/03/11 01:29:25;;;;;;;;;24.25;19.25;;;;;11.90;51.75;100585.81;5010623;28;45286;-63
2022/03/11 01:31:53;;;;;;;;;24.25;18.25;;;;;11.92;51.70;100602.56;5006317;28;45590;-63
2022/03/11 01:34:20;;;;;;;;;26.75;20.00;;;;;11.92;52.04;100599.88;4982569;28;46428;-63
2022/03/11 01:36:46;;;;;;;;;19.25;19.25;;;;;11.92;51.63;100599.88;4983215;28;45461;-65
2022/03/11 01:39:12;;;;;;;;;24.50;23.00;;;;;11.92;51.89;100605.22;5011597;28;45470;-64
2022/03/11 01:41:39;;;;;;;;;25.50;21.75;;;;;11.74;52.14;100581.38;5021938;28;45270;-62
2022/03/11 01:44:09;;;;;;;;;20.00;19.75;;;;;11.80;51.54;100593.50;4988225;28;46516;-63
2022/03/11 01:46:36;;;;;;;;;25.25;21.00;;;;;11.85;51.68;100598.53;5017306;28;45399;-63
2022/03/11 01:49:04;;;;;;;;;16.75;14.75;;;;;11.82;52.37;100584.44;5017055;28;45424;-63
2022/03/11 01:51:32;;;;;;;;;29.00;22.25;;;;;11.77;51.58;100570.53;5018918;28;45852;-62
2022/03/11 01:53:58;;;;;;;;;21.50;20.25;;;;;11.79;51.80;100579.31;5032984;28;45022;-63
2022/03/11 01:56:24;;;;;;;;;15.25;14.25;;;;;11.82;52.47;100573.78;4999946;28;45159;-62
2022/03/11 01:58:51;;;;;;;;;27.00;20.50;;;;;11.79;52.21;100571.31;5014464;28;45394;-62
2022/03/11 02:01:18;;;;;;;;;24.50;21.50;;;;;11.79;52.56;100575.78;5012855;28;45592;-65
2022/03/11 02:03:44;;;;;;;;;25.00;22.00;;;;;11.74;52.32;100568.06;5011430;28;45490;-66
2022/03/11 02:06:12;;;;;;;;;20.75;20.75;;;;;11.69;52.22;100562.13;5020031;28;44860;-65
2022/03/11 02:08:37;;;;;;;;;20.50;18.50;;;;;11.70;52.38;100561.19;5027161;28;44825;-64
2022/03/11 02:11:03;;;;;;;;;20.25;17.00;;;;;11.65;52.19;100555.28;5001269;28;45623;-66
2022/03/11 02:13:41;;;;;;;;;24.75;22.25;;;;;11.66;52.45;100557.00;5007224;28;45305;-63
2022/03/11 02:16:06;;;;;;;;;22.00;19.75;;;;;11.61;52.58;100548.44;5008151;28;45443;-63
2022/03/11 02:18:32;;;;;;;;;21.75;21.00;;;;;11.58;52.30;100558.41;5013179;28;45700;-64
2022/03/11 02:20:57;;;;;;;;;21.50;19.50;;;;;11.66;52.45;100572.13;5012838;28;45507;-63
2022/03/11 02:23:23;;;;;;;;;21.25;18.00;;;;;11.65;52.59;100571.28;5019163;28;45292;-62
2022/03/11 02:25:49;;;;;;;;;29.00;22.50;;;;;11.60;53.15;100560.06;5022204;28;45161;-63
2022/03/11 02:28:14;;;;;;;;;21.75;19.75;;;;;11.62;52.97;100560.81;5022077;28;45711;-62
2022/03/11 02:30:40;;;;;;;;;20.25;18.75;;;;;11.65;52.66;100571.28;5021412;28;45431;-63
2022/03/11 02:33:05;;;;;;;;;22.50;19.50;;;;;11.63;53.02;100569.66;5005037;28;45389;-63
2022/03/11 02:35:31;;;;;;;;;22.00;19.50;;;;;11.61;52.98;100558.25;5022589;28;45467;-63
2022/03/11 02:37:56;;;;;;;;;27.25;17.25;;;;;11.61;53.35;100561.78;5026868;28;45259;-66
2022/03/11 02:40:21;;;;;;;;;22.75;21.75;;;;;11.57;53.27;100540.72;5005355;28;45805;-62
2022/03/11 02:42:47;;;;;;;;;23.25;22.00;;;;;11.53;52.90;100545.38;5003500;28;46570;-63
2022/03/11 02:45:12;;;;;;;;;24.25;21.75;;;;;11.61;53.28;100558.25;4985578;28;45419;-63
2022/03/11 02:47:38;;;;;;;;;24.25;23.25;;;;;11.58;53.26;100545.09;5016159;28;45336;-62
2022/03/11 02:50:05;;;;;;;;;20.75;18.75;;;;;11.52;53.71;100533.88;5009551;28;45323;-63
2022/03/11 02:52:30;;;;;;;;;31.00;23.50;;;;;11.51;53.66;100541.97;5014406;28;45309;-63
2022/03/11 02:54:56;;;;;;;;;23.25;22.25;;;;;11.52;53.60;100547.19;5006414;28;45313;-63
2022/03/11 02:57:22;;;;;;;;;27.50;19.00;;;;;11.51;53.78;100541.97;4981424;28;45535;-63
2022/03/11 02:59:47;;;;;;;;;22.25;20.50;;;;;11.45;54.20;100537.00;5000473;28;45901;-63
2022/03/11 03:02:13;;;;;;;;;27.50;23.25;;;;;11.43;54.00;100542.41;4999930;28;46214;-63
2022/03/11 03:04:39;;;;;;;;;25.25;21.25;;;;;11.37;54.22;100524.16;5011274;28;45517;-64
2022/03/11 03:07:05;;;;;;;;;22.75;22.25;;;;;11.36;53.83;100526.91;5015147;28;45289;-63
2022/03/11 03:09:30;;;;;;;;;22.00;21.75;;;;;11.28;54.51;100530.03;5013095;28;45370;-61
2022/03/11 03:11:56;;;;;;;;;25.00;21.75;;;;;11.27;54.37;100520.34;5018914;28;45324;-63
2022/03/11 03:14:21;;;;;;;;;23.50;20.00;;;;;11.30;54.29;100516.63;5024612;28;45823;-63
2022/03/11 03:16:47;;;;;;;;;25.75;18.50;;;;;11.16;55.27;100505.00;4997196;28;45615;-63
2022/03/11 03:19:12;;;;;;;;;21.00;21.00;;;;;11.13;55.50;100510.50;5005080;28;46931;-66
2022/03/11 03:21:39;;;;;;;;;23.50;22.50;;;;;11.09;55.94;100509.00;5007896;28;46033;-66
2022/03/11 03:24:05;;;;;;;;;27.00;21.25;;;;;11.02;56.01;100502.31;5027256;28;45354;-63
2022/03/11 03:26:31;;;;;;;;;20.25;17.50;;;;;10.99;55.99;100501.63;5019395;28;45328;-62
2022/03/11 03:28:56;;;;;;;;;17.25;17.25;;;;;10.95;56.06;100490.31;5004270;28;45548;-63
2022/03/11 03:31:22;;;;;;;;;26.25;21.00;;;;;10.89;55.43;100480.88;5004880;28;45664;-63
2022/03/11 03:33:48;;;;;;;;;21.75;18.75;;;;;10.82;56.80;100482.22;5003821;28;45464;-63
2022/03/11 03:36:14;;;;;;;;;17.25;15.25;;;;;10.77;56.92;100470.09;5009927;28;44842;-65
2022/03/11 03:38:40;;;;;;;;;23.50;21.00;;;;;10.85;56.14;100492.66;4992834;28;45554;-63
2022/03/11 03:41:05;;;;;;;;;19.50;17.50;;;;;10.83;56.09;100504.34;5004944;28;45488;-63
2022/03/11 03:43:31;;;;;;;;;23.00;17.50;;;;;10.69;56.34;100478.56;5001128;28;46970;-63
2022/03/11 03:45:56;;;;;;;;;22.75;20.25;;;;;10.73;57.06;100481.88;5010121;28;45422;-62
2022/03/11 03:48:21;;;;;;;;;20.00;18.75;;;;;10.77;56.97;100488.72;5006997;28;45691;-63
2022/03/11 03:50:47;;;;;;;;;25.00;20.75;;;;;10.77;56.14;100488.72;5005361;28;46817;-64
2022/03/11 03:53:12;;;;;;;;;26.25;21.25;;;;;10.70;57.10;100490.06;5008528;28;45387;-61
2022/03/11 03:55:38;;;;;;;;;19.00;18.25;;;;;10.78;56.04;100488.63;4995779;28;45440;-63
2022/03/11 03:58:03;;;;;;;;;26.25;20.25;;;;;10.76;56.91;100479.03;4989012;28;45674;-63
2022/03/11 04:00:29;;;;;;;;;22.75;19.25;;;;;10.69;56.32;100472.38;4968384;28;45563;-63
2022/03/11 04:02:56;;;;;;;;;22.25;18.25;;;;;10.69;56.72;100477.69;5009822;28;45475;-65
2022/03/11 04:05:21;;;;;;;;;20.75;16.50;;;;;10.58;57.49;100463.22;5028567;28;45640;-62
2022/03/11 04:07:48;;;;;;;;;17.25;16.50;;;;;10.65;57.89;100469.00;5025049;28;45616;-63
2022/03/11 04:10:14;;;;;;;;;19.00;17.50;;;;;10.59;57.77;100480.88;5009318;28;46347;-64
2022/03/11 04:12:40;;;;;;;;;26.25;19.25;;;;;10.51;57.79;100461.00;4995561;28;45371;-63
2022/03/11 04:15:07;;;;;;;;;20.50;16.50;;;;;10.57;57.85;100474.81;5001337;28;45396;-62
2022/03/11 04:17:32;;;;;;;;;21.50;20.25;;;;;10.58;57.58;100479.16;5016520;28;45420;-62
2022/03/11 04:19:59;;;;;;;;;21.50;21.50;;;;;10.48;58.25;100459.38;4993382;28;46721;-63
2022/03/11 04:22:25;;;;;;;;;19.75;17.00;;;;;10.55;57.96;100465.19;5008823;28;45405;-65
2022/03/11 04:24:50;;;;;;;;;21.00;16.25;;;;;10.59;58.22;100466.72;5002116;28;45221;-63
2022/03/11 04:27:16;;;;;;;;;21.00;18.75;;;;;10.54;58.27;100456.34;4999571;28;45216;-63
2022/03/11 04:29:42;;;;;;;;;20.25;16.75;;;;;10.50;58.62;100449.50;5001082;28;46114;-61
2022/03/11 04:32:08;;;;;;;;;21.75;17.25;;;;;10.47;58.96;100465.63;4996135;28;45416;-62
2022/03/11 04:34:33;;;;;;;;;21.00;17.00;;;;;10.33;58.54;100442.50;5006411;28;45498;-62
2022/03/11 04:36:58;;;;;;;;;17.00;15.25;;;;;10.41;58.60;100458.00;5013805;28;45336;-63
2022/03/11 04:39:26;;;;;;;;;20.25;20.25;;;;;10.51;57.78;100474.28;5010214;28;45508;-62
2022/03/11 04:41:53;;;;;;;;;18.50;14.75;;;;;10.51;58.40;100471.63;5003377;28;45333;-61
2022/03/11 04:44:18;;;;;;;;;16.50;11.25;;;;;10.51;59.06;100468.97;4995573;28;45546;-62
2022/03/11 04:46:44;;;;;;;;;17.75;15.50;;;;;10.45;58.57;100459.56;5016777;28;45364;-63
2022/03/11 04:49:09;;;;;;;;;15.25;15.25;;;;;10.42;58.50;100458.88;5009301;28;45468;-63
2022/03/11 04:51:34;;;;;;;;;17.50;17.00;;;;;10.33;58.33;100460.25;4990761;28;45509;-64
2022/03/11 04:54:00;;;;;;;;;16.25;16.25;;;;;10.30;59.17;100449.81;5005687;28;45658;-66
2022/03/11 04:56:26;;;;;;;;;16.00;16.00;;;;;10.28;58.97;100452.53;5006974;28;45666;-62
2022/03/11 04:58:51;;;;;;;;;12.25;12.25;;;;;10.37;58.40;100467.09;4998746;28;46237;-63
2022/03/11 05:01:17;;;;;;;;;20.25;16.75;;;;;10.25;59.09;100438.56;4983043;28;45401;-63
2022/03/11 05:03:42;;;;;;;;;18.75;15.50;;;;;10.24;59.51;100437.69;5002923;28;45558;-63
2022/03/11 05:06:08;;;;;;;;;17.25;13.25;;;;;10.28;59.66;100451.66;4998775;28;45345;-64
2022/03/11 05:08:33;;;;;;;;;12.50;12.50;;;;;10.18;59.36;100447.81;4998560;28;45438;-63
2022/03/11 05:10:59;;;;;;;;;16.00;13.25;;;;;10.21;59.94;100445.84;4985877;28;45433;-61
2022/03/11 05:13:24;;;;;;;;;17.50;15.00;;;;;10.24;59.33;100455.44;5010261;28;45586;-63
2022/03/11 05:15:50;;;;;;;;;15.00;15.00;;;;;10.28;58.82;100456.97;5012352;28;44902;-64
2022/03/11 05:18:15;;;;;;;;;15.25;15.25;;;;;10.18;59.99;100427.41;5006449;28;45775;-63
2022/03/11 05:20:40;;;;;;;;;13.00;13.00;;;;;10.21;60.18;100447.63;5002374;28;45912;-62
2022/03/11 05:23:06;;;;;;;;;19.25;14.25;;;;;10.16;60.86;100436.41;4999167;28;45418;-61
2022/03/11 05:25:31;;;;;;;;;12.50;10.75;;;;;10.14;60.32;100440.94;5000924;28;44969;-63
2022/03/11 05:27:57;;;;;;;;;14.50;11.75;;;;;10.04;60.85;100416.69;4985919;28;45477;-62
2022/03/11 05:30:22;;;;;;;;;12.00;9.00;;;;;10.09;60.21;100432.38;5008455;28;45313;-63
2022/03/11 05:32:48;;;;;;;;;18.50;13.00;;;;;10.10;60.12;100436.75;5004466;28;45471;-63
2022/03/11 05:35:17;;;;;;;;;13.50;11.25;;;;;9.98;60.44;100420.53;5001737;28;45238;-65
2022/03/11 05:37:42;;;;;;;;;20.25;12.75;;;;;10.06;60.89;100425.44;4982784;28;47531;-62
2022/03/11 05:40:09;;;;;;;;;18.00;14.75;;;;;10.05;60.10;100426.38;4999248;28;45420;-66
2022/03/11 05:42:34;;;;;;;;;13.25;12.00;;;;;9.98;60.47;100417.88;5004539;28;45260;-63
2022/03/11 05:45:02;;;;;;;;;13.50;11.25;;;;;9.98;60.76;100409.06;4999122;28;45630;-62
2022/03/11 05:47:28;;;;;;;;;11.75;11.75;;;;;9.95;61.20;100417.22;4985225;28;46276;-62
2022/03/11 05:49:54;;;;;;;;;10.25;10.25;;;;;9.90;60.73;100417.47;5003471;28;45424;-64
2022/03/11 05:52:21;;;;;;;;;15.00;15.00;;;;;9.90;60.86;100412.16;5006757;28;45316;-63
2022/03/11 05:54:46;;;;;;;;;12.00;11.50;;;;;9.92;60.81;100415.59;5011408;28;45804;-63
2022/03/11 05:57:11;;;;;;;;;14.50;12.00;;;;;9.88;60.84;100406.06;5014057;28;45231;-63
2022/03/11 05:59:37;;;;;;;;;14.25;11.50;;;;;9.82;60.48;100398.44;5004306;28;45922;-63
2022/03/11 06:02:03;;;;;;;;;12.50;10.75;;;;;9.91;61.68;100411.22;5001630;28;45555;-66
2022/03/11 06:04:29;;;;;;;;;14.75;13.25;;;;;9.80;61.62;100397.69;5011143;28;45500;-63
2022/03/11 06:06:54;;;;;;;;;14.75;14.00;;;;;9.87;61.75;100414.97;5002515;28;45653;-62
2022/03/11 06:09:19;;;;;;;;;10.50;10.00;;;;;9.78;62.14;100396.06;5006182;28;45399;-64
2022/03/11 06:11:45;;;;;;;;;13.00;13.00;;;;;9.81;61.23;100404.72;5008120;28;45518;-65
2022/03/11 06:14:10;;;;;;;;;11.00;11.00;;;;;9.90;61.39;100428.09;4988628;28;45468;-62
2022/03/11 06:16:36;;;;;;;;;13.25;11.25;;;;;9.88;60.50;100410.50;5005955;28;45946;-64
2022/03/11 06:19:02;;;;;;;;;11.25;11.25;;;;;9.82;61.25;100411.72;5006417;28;45554;-64
2022/03/11 06:21:28;;;;;;;;;14.25;11.00;;;;;9.84;61.36;100409.84;5001897;28;45432;-63
2022/03/11 06:23:53;;;;;;;;;11.25;10.00;;;;;9.89;61.09;100414.88;5009329;28;45638;-64
2022/03/11 06:26:19;;;;;;;;;18.50;12.00;;;;;9.90;61.25;100409.50;5007014;28;45727;-62
2022/03/11 06:28:44;;;;;;;;;11.75;9.50;;;;;9.92;60.36;100407.63;5004218;28;45436;-64
2022/03/11 06:31:11;;;;;;;;;19.00;15.00;;;;;9.93;60.92;100397.84;5008128;28;45241;-63
2022/03/11 06:33:37;;;;;;;;;14.25;11.50;;;;;9.99;60.92;100408.97;5007156;28;45551;-64
2022/03/11 06:36:03;;;;;;;;;13.25;9.00;;;;;10.00;61.14;100405.38;5020824;28;46173;-66
2022/03/11 06:38:28;;;;;;;;;14.50;10.25;;;;;10.01;61.32;100396.44;5007234;28;46726;-62
2022/03/11 06:40:54;;;;;;;;;18.75;12.75;;;;;9.95;61.32;100390.66;5005467;28;44719;-64
2022/03/11 06:43:20;;;;;;;;;18.75;11.75;;;;;10.02;61.96;100398.16;5004737;28;45465;-65
2022/03/11 06:45:45;;;;;;;;;10.25;9.00;;;;;10.04;61.08;100393.66;4987129;28;45855;-61
2022/03/11 06:48:11;;;;;;;;;10.50;10.50;;;;;10.13;60.42;100400.22;4987776;28;45489;-64
2022/03/11 06:50:36;;;;;;;;;12.00;10.50;;;;;9.99;61.13;100369.13;4993038;28;45397;-63
2022/03/11 06:53:02;;;;;;;;;11.75;10.25;;;;;10.01;60.77;100369.03;5008434;28;45666;-63
2022/03/11 06:55:27;;;;;;;;;15.25;11.50;;;;;10.02;61.00;100363.63;5011874;28;45368;-61
2022/03/11 06:57:53;;;;;;;;;11.00;10.00;;;;;10.21;60.89;100386.50;4979511;28;45536;-65
2022/03/11 07:00:23;;;;;;;;;15.50;9.00;;;;;10.26;61.41;100389.78;5003462;28;45421;-63
2022/03/11 07:02:49;;;;;;;;;10.75;9.00;;;;;10.20;60.50;100384.78;5009814;28;45483;-66
2022/03/11 07:05:14;;;;;;;;;9.75;7.50;;;;;10.10;60.32;100363.19;4987794;28;47114;-63
2022/03/11 07:07:40;;;;;;;;;11.00;7.75;;;;;10.27;61.13;100391.47;4989277;28;45517;-63
2022/03/11 07:10:10;;;;;;;;;10.00;7.25;;;;;10.18;60.78;100366.28;5021964;28;45341;-62
2022/03/11 07:12:35;;;;;;;;;14.25;8.00;;;;;10.34;59.93;100384.88;5006963;28;45506;-61
2022/03/11 07:15:02;;;;;;;;;6.50;5.50;;;;;10.33;60.82;100375.19;4996288;28;46398;-63
2022/03/11 07:17:28;;;;;;;;;11.50;10.75;;;;;10.34;59.88;100382.22;4985821;28;45435;-63
2022/03/11 07:19:55;;;;;;;;;10.50;10.50;;;;;10.39;60.15;100380.13;4983698;28;45498;-64
2022/03/11 07:22:20;;;;;;;;;6.50;6.25;;;;;10.39;59.99;100369.50;5002265;28;45716;-65
2022/03/11 07:24:46;;;;;;;;;8.50;7.50;;;;;10.46;60.54;100378.84;5005181;28;46284;-68
2022/03/11 07:27:12;;;;;;;;;13.75;6.75;;;;;10.53;59.58;100372.19;4979370;28;45507;-67
2022/03/11 07:29:38;;;;;;;;;11.75;11.00;;;;;10.52;59.92;100353.69;5003200;28;45447;-66
2022/03/11 07:32:04;;;;;;;;;9.25;6.75;;;;;10.58;59.66;100361.31;5008360;28;45401;-67
2022/03/11 07:34:30;;;;;;;;;8.50;7.50;;;;;10.61;59.41;100364.63;5001223;28;46126;-65
2022/03/11 07:36:55;;;;;;;;;9.75;7.75;;;;;10.60;59.52;100368.25;4998286;28;45361;-67
2022/03/11 07:39:21;;;;;;;;;9.25;8.25;;;;;10.70;59.71;100352.59;5000537;28;45368;-66
2022/03/11 07:41:48;;;;;;;;;10.50;8.00;;;;;10.74;58.78;100358.59;5000657;28;44976;-66
2022/03/11 07:44:14;;;;;;;;;9.50;7.00;;;;;10.70;59.34;100344.63;5001368;28;46336;-67
2022/03/11 07:46:44;;;;;;;;;11.00;9.50;;;;;10.73;59.31;100352.41;5003156;28;45459;-66
2022/03/11 07:49:10;;;;;;;;;6.75;6.75;;;;;10.77;59.99;100355.72;5005432;28;45312;-66
2022/03/11 07:51:37;;;;;;;;;7.50;7.50;;;;;10.78;59.03;100349.47;5004614;28;45551;-65
2022/03/11 07:54:03;;;;;;;;;8.00;7.25;;;;;10.76;58.89;100338.91;5005249;28;47211;-65
2022/03/11 07:56:28;;;;;;;;;7.75;7.75;;;;;10.88;59.46;100346.16;5003164;28;45536;-67
2022/03/11 07:58:54;;;;;;;;;9.75;7.75;;;;;10.63;58.71;100304.22;5003803;28;45419;-66
2022/03/11 08:01:20;;;;;;;;;6.00;3.25;;;;;10.84;58.73;100330.47;5000656;28;45443;-66
2022/03/11 08:03:46;;;;;;;;;7.00;7.00;;;;;10.88;58.79;100337.31;4999650;28;47772;-66
2022/03/11 08:06:11;;;;;;;;;7.75;6.00;;;;;10.94;58.74;100339.63;5000927;28;45455;-67
2022/03/11 08:08:38;;;;;;;;;8.00;7.00;;;;;10.95;58.81;100336.00;4999611;28;45424;-68
2022/03/11 08:11:04;;;;;;;;;7.00;5.50;;;;;10.90;58.44;100322.09;5004060;28;45654;-69
2022/03/11 08:13:30;;;;;;;;;6.25;6.25;;;;;10.92;58.83;100321.06;5001436;28;45990;-72
2022/03/11 08:15:55;;;;;;;;;7.75;7.00;;;;;10.96;58.51;100332.38;4983355;28;45194;-66
2022/03/11 08:18:22;;;;;;;;;7.75;7.00;;;;;11.04;57.97;100332.75;4998160;28;45463;-67
2022/03/11 08:20:48;;;;;;;;;8.75;8.00;;;;;11.10;58.14;100329.72;5002565;28;45673;-69
2022/03/11 08:23:14;;;;;;;;;3.75;3.00;;;;;11.09;57.92;100317.38;5000324;28;45730;-66
2022/03/11 08:25:40;;;;;;;;;8.75;7.00;;;;;11.19;57.96;100315.81;5004480;28;44825;-65
2022/03/11 08:28:10;;;;;;;;;7.75;7.25;;;;;11.20;57.51;100306.91;5002211;28;45451;-65
2022/03/11 08:30:42;;;;;;;;;9.00;9.00;;;;;11.27;57.77;100320.66;5001720;28;45442;-63
2022/03/11 08:33:10;;;;;;;;;9.00;9.00;;;;;11.26;57.26;100310.13;4986092;28;45320;-65
2022/03/11 08:35:36;;;;;;;;;9.00;7.00;;;;;11.25;57.45;100316.41;5000301;28;45630;-71
2022/03/11 08:38:04;;;;;;;;;7.00;5.75;;;;;11.29;56.91;100293.94;4987522;28;45535;-69
2022/03/11 08:40:30;;;;;;;;;11.50;8.00;;;;;11.55;57.29;100311.78;5005984;28;45562;-66
2022/03/11 08:42:55;;;;;;;;;11.50;6.75;;;;;11.63;56.47;100297.97;5001030;28;46204;-68
2022/03/11 08:45:22;;;;;;;;;12.00;6.00;;;;;11.73;56.66;100305.28;5007799;28;45337;-68
2022/03/11 08:47:52;;;;;;;;;6.25;5.50;;;;;11.76;56.44;100297.06;4990368;28;44694;-68
2022/03/11 08:50:18;;;;;;;;;7.00;4.50;;;;;11.81;55.71;100302.97;5011185;28;45250;-67
2022/03/11 08:52:44;;;;;;;;;8.00;6.75;;;;;11.81;55.61;100294.97;5003351;28;46338;-65
2022/03/11 08:55:11;;;;;;;;;7.50;7.25;;;;;11.91;55.90;100302.38;5014260;28;45518;-63
2022/03/11 08:57:37;;;;;;;;;7.25;6.00;;;;;11.98;55.43;100282.34;5004974;28;45415;-69
2022/03/11 09:00:07;;;;;;;;;3.25;3.25;;;;;12.15;55.06;100290.06;4984383;28;45503;-67
2022/03/11 09:02:37;;;;;;;;;7.75;7.75;;;;;12.24;54.85;100285.91;5001830;28;45486;-63
2022/03/11 09:05:05;;;;;;;;;5.00;3.25;;;;;12.38;54.63;100292.06;4981996;28;45436;-65
2022/03/11 09:07:32;;;;;;;;;4.00;4.00;;;;;12.49;54.29;100290.44;5003419;28;45238;-65
2022/03/11 09:09:58;;;;;;;;;5.50;5.50;;;;;12.64;54.01;100278.72;5010570;28;45523;-68
2022/03/11 09:12:24;;;;;;;;;7.00;4.50;;;;;12.70;53.39;100276.47;5007726;28;45419;-68
2022/03/11 09:14:49;;;;;;;;;8.50;7.00;;;;;12.88;52.97;100282.31;5007483;28;45225;-67
2022/03/11 09:17:14;;;;;;;;;6.75;6.75;;;;;12.90;53.25;100269.75;5004980;28;45399;-62
2022/03/11 09:19:42;;;;;;;;;4.00;4.00;;;;;12.97;52.89;100268.34;5020042;28;45401;-67
2022/03/11 09:22:08;;;;;;;;;4.00;4.00;;;;;12.96;52.76;100274.63;5028125;28;45277;-67
2022/03/11 09:24:33;;;;;;;;;3.00;3.00;;;;;13.04;52.54;100271.44;5006304;28;45297;-66
2022/03/11 09:26:59;;;;;;;;;5.67;5.00;;;;;13.18;52.39;100275.78;5022816;28;45884;-65
2022/03/11 09:29:28;;;;;;;;;2.00;2.00;;;;;13.24;52.24;100267.34;5023073;28;45307;-66
2022/03/11 09:31:54;;;;;;;;;5.67;5.33;;;;;13.33;51.93;100271.19;5018156;28;45424;-64
2022/03/11 09:34:20;;;;;;;;;6.00;5.33;;;;;13.47;52.07;100271.88;5005337;28;45455;-68
2022/03/11 09:36:45;;;;;;;;;5.67;5.67;;;;;13.61;51.57;100265.53;4985397;28;45601;-64
2022/03/11 09:39:10;;;;;;;;;7.00;5.33;;;;;13.78;50.58;100274.97;5005245;28;45403;-63
2022/03/11 09:41:36;;;;;;;;;4.00;4.00;;;;;13.84;51.09;100267.34;5011690;28;46447;-66
2022/03/11 09:44:02;;;;;;;;;4.00;4.00;;;;;13.93;50.62;100259.59;5007582;28;45520;-64
2022/03/11 09:46:29;;;;;;;;;4.00;4.00;;;;;14.08;50.39;100253.09;4985504;28;45452;-69
2022/03/11 09:48:55;;;;;;;;;7.33;5.00;;;;;14.26;49.68;100273.09;5002484;28;45424;-67
2022/03/11 09:51:20;;;;;;;;;5.00;4.00;;;;;14.26;48.99;100245.50;5005590;28;45385;-67
2022/03/11 09:53:46;;;;;;;;;7.67;7.67;;;;;14.25;49.27;100257.16;5005054;28;45172;-69
2022/03/11 09:56:12;;;;;;;;;8.67;6.67;;;;;14.15;49.56;100238.28;4987176;28;45390;-67
2022/03/11 09:58:41;;;;;;;;;6.67;6.67;;;;;14.23;49.72;100251.09;4984058;28;45215;-68
2022/03/11 10:01:06;;;;;;;;;7.00;5.00;;;;;14.27;48.65;100250.72;4964739;28;46993;-70
2022/03/11 10:03:32;;;;;;;;;5.00;3.33;;;;;14.27;48.93;100250.72;4984133;28;45248;-66
2022/03/11 10:05:57;;;;;;;;;5.00;4.00;;;;;14.26;48.61;100237.47;4965494;28;45480;-65
2022/03/11 10:08:40;;;;;;;;;4.67;3.00;;;;;14.07;48.75;100204.13;4981757;28;45310;-65
2022/03/11 10:11:21;;;;;;;;;4.00;4.00;;;;;14.31;48.67;100222.75;4988328;28;45437;-66
2022/03/11 10:13:47;;;;;;;;;3.33;3.33;;;;;14.26;49.12;100218.75;4990907;28;45277;-66
2022/03/11 10:16:23;;;;;;;;;3.33;3.33;;;;;14.22;49.90;100185.19;4989751;28;45270;-66
2022/03/11 10:18:59;;;;;;;;;4.00;2.00;;;;;14.10;51.20;100219.94;4990693;28;45899;-68
2022/03/11 10:21:28;;;;;;;;;4.00;3.00;;;;;13.91;51.01;100208.91;4969184;28;47285;-66
2022/03/11 10:23:54;;;;;;;;;4.33;3.00;;;;;13.95;51.68;100214.91;4985096;28;45674;-64
2022/03/11 10:26:36;;;;;;;;;4.00;4.00;;;;;14.08;51.37;100227.22;4986052;28;45325;-68
2022/03/11 10:29:05;;;;;;;;;4.00;4.00;;;;;14.22;51.25;100223.50;4966982;28;45556;-66
2022/03/11 10:31:36;;;;;;;;;4.00;4.00;;;;;14.37;50.91;100226.78;4988404;28;45221;-69
2022/03/11 10:34:22;;;;;;;;;7.00;5.00;;;;;14.38;50.65;100196.38;4992713;28;45385;-71
2022/03/11 10:37:09;;;;;;;;;5.00;5.00;;;;;14.62;50.20;100215.91;4990377;28;45488;-68
2022/03/11 10:39:48;;;;;;;;;9.33;8.00;;;;;14.62;49.77;100199.00;4988456;28;45373;-65
2022/03/11 10:42:23;;;;;;;;;4.67;4.00;;;;;14.52;49.52;100198.88;4992930;28;46194;-65
2022/03/11 10:44:59;;;;;;;;;4.33;4.00;;;;;14.65;50.08;100237.06;4992028;28;45313;-63
2022/03/11 10:47:28;;;;;;;;;5.67;3.00;;;;;14.59;49.66;100237.56;4993684;28;45322;-69
2022/03/11 10:49:56;;;;;;;;;4.67;3.00;;;;;14.59;49.98;100240.25;4996371;28;45215;-67
2022/03/11 10:52:35;;;;;;;;;5.33;3.00;;;;;14.50;49.67;100226.72;4982162;28;47370;-66
2022/03/11 10:55:15;;;;;;;;;4.00;4.00;;;;;14.50;49.72;100208.84;4994971;28;45463;-69
2022/03/11 10:57:41;;;;;;;;;9.00;5.00;;;;;14.38;52.59;100183.88;5009431;28;44639;-66
2022/03/11 11:00:17;;;;;;;;;5.00;5.00;;;;;14.38;52.99;100228.50;5007100;28;45854;-71
2022/03/11 11:02:44;;;;;;;;;8.33;4.33;;;;;14.30;53.62;100247.81;4998371;28;45325;-69
2022/03/11 11:05:12;;;;;;;;;2.00;2.00;;;;;14.14;55.07;100245.47;5000766;28;45477;-68
2022/03/11 11:07:40;;;;;;;;;6.67;5.00;;;;;14.11;56.20;100253.72;5003016;28;45449;-65
2022/03/11 11:10:06;;;;;;;;;5.67;5.00;;;;;14.17;55.43;100252.38;5001774;28;45456;-64
2022/03/11 11:12:33;;;;;;;;;6.00;6.00;;;;;14.16;55.46;100248.84;5001295;28;46085;-65